sensor_id;sensor_type;location;lat;lon;timestamp;pressure;altitude;pressure_sealevel;temperature;humidity
85140;BME280;75501;52.586;13.284;2024-03-02T00:00:12;100174.50;;;8.80;77.20
85140;BME280;75501;52.586;13.284;2024-03-02T00:03:03;100177.22;;;8.80;77.01
85140;BME280;75501;52.586;13.284;2024-03-02T00:05:59;100177.00;;;8.90;76.73
85140;BME280;75501;52.586;13.284;2024-03-02T00:09:04;100176.53;;;8.88;76.83
85140;BME280;75501;52.586;13.284;2024-03-02T00:11:46;100177.34;;;8.75;76.90
85140;BME280;75501;52.586;13.284;2024-03-02T00:14:22;100175.94;;;8.77;77.23
85140;BME280;75501;52.586;13.284;2024-03-02T00:17:17;100170.91;;;8.84;77.01
85140;BME280;75501;52.586;13.284;2024-03-02T00:20:08;100167.28;;;8.75;77.26
85140;BME280;75501;52.586;13.284;2024-03-02T00:23:08;100171.81;;;8.66;77.22
85140;BME280;75501;52.586;13.284;2024-03-02T00:26:18;100165.19;;;8.72;77.95
85140;BME280;75501;52.586;13.284;2024-03-02T00:29:34;100174.53;;;8.66;77.94
85140;BME280;75501;52.586;13.284;2024-03-02T00:32:28;100172.72;;;8.62;77.86
85140;BME280;75501;52.586;13.284;2024-03-02T00:35:24;100163.56;;;8.58;78.10
85140;BME280;75501;52.586;13.284;2024-03-02T00:38:15;100166.06;;;8.40;78.57
85140;BME280;75501;52.586;13.284;2024-03-02T00:41:20;100163.69;;;8.53;78.66
85140;BME280;75501;52.586;13.284;2024-03-02T00:44:55;100159.06;;;8.53;78.39
85140;BME280;75501;52.586;13.284;2024-03-02T00:47:47;100157.75;;;8.50;78.66
85140;BME280;75501;52.586;13.284;2024-03-02T00:50:52;100157.66;;;8.56;78.49
85140;BME280;75501;52.586;13.284;2024-03-02T00:53:46;100155.63;;;8.61;78.17
85140;BME280;75501;52.586;13.284;2024-03-02T00:56:28;100151.63;;;8.59;78.66
85140;BME280;75501;52.586;13.284;2024-03-02T00:59:42;100154.13;;;8.69;78.05
85140;BME280;75501;52.586;13.284;2024-03-02T01:02:59;100157.34;;;8.71;78.67
85140;BME280;75501;52.586;13.284;2024-03-02T01:05:29;100164.97;;;8.55;79.08
85140;BME280;75501;52.586;13.284;2024-03-02T01:08:41;100159.28;;;8.57;79.17
85140;BME280;75501;52.586;13.284;2024-03-02T01:12:18;100157.38;;;8.57;79.33
85140;BME280;75501;52.586;13.284;2024-03-02T01:15:27;100150.00;;;8.58;78.98
85140;BME280;75501;52.586;13.284;2024-03-02T01:18:33;100157.34;;;8.43;79.38
85140;BME280;75501;52.586;13.284;2024-03-02T01:21:43;100156.66;;;8.52;79.60
85140;BME280;75501;52.586;13.284;2024-03-02T01:25:13;100145.59;;;8.62;79.28
85140;BME280;75501;52.586;13.284;2024-03-02T01:31:49;100143.63;;;8.54;80.19
85140;BME280;75501;52.586;13.284;2024-03-02T01:35:08;100148.63;;;8.46;80.49
85140;BME280;75501;52.586;13.284;2024-03-02T01:38:15;100142.28;;;8.65;80.00
85140;BME280;75501;52.586;13.284;2024-03-02T01:41:21;100130.84;;;8.54;80.97
85140;BME280;75501;52.586;13.284;2024-03-02T01:44:19;100133.16;;;8.61;80.52
85140;BME280;75501;52.586;13.284;2024-03-02T01:47:20;100132.66;;;8.59;80.52
85140;BME280;75501;52.586;13.284;2024-03-02T01:53:47;100123.72;;;8.58;80.36
85140;BME280;75501;52.586;13.284;2024-03-02T01:57:03;100116.88;;;8.47;81.53
85140;BME280;75501;52.586;13.284;2024-03-02T01:59:58;100111.97;;;8.49;81.32
85140;BME280;75501;52.586;13.284;2024-03-02T02:02:48;100112.47;;;8.37;81.51
85140;BME280;75501;52.586;13.284;2024-03-02T02:05:33;100110.28;;;8.39;82.19
85140;BME280;75501;52.586;13.284;2024-03-02T02:08:17;100104.44;;;8.46;81.61
85140;BME280;75501;52.586;13.284;2024-03-02T02:11:07;100105.44;;;8.36;81.95
85140;BME280;75501;52.586;13.284;2024-03-02T02:14:13;100104.25;;;8.42;82.14
85140;BME280;75501;52.586;13.284;2024-03-02T02:16:57;100097.63;;;8.48;81.86
85140;BME280;75501;52.586;13.284;2024-03-02T02:19:52;100097.22;;;8.41;82.23
85140;BME280;75501;52.586;13.284;2024-03-02T02:23:13;100090.56;;;8.47;82.35
85140;BME280;75501;52.586;13.284;2024-03-02T02:25:58;100083.56;;;8.46;82.37
85140;BME280;75501;52.586;13.284;2024-03-02T02:29:23;100086.09;;;8.43;82.55
85140;BME280;75501;52.586;13.284;2024-03-02T02:31:58;100082.38;;;8.39;82.54
85140;BME280;75501;52.586;13.284;2024-03-02T02:34:54;100082.97;;;8.49;82.42
85140;BME280;75501;52.586;13.284;2024-03-02T02:38:05;100082.97;;;8.49;82.33
85140;BME280;75501;52.586;13.284;2024-03-02T02:41:00;100083.19;;;8.39;82.66
85140;BME280;75501;52.586;13.284;2024-03-02T02:43:59;100085.16;;;8.34;83.44
85140;BME280;75501;52.586;13.284;2024-03-02T02:46:36;100088.19;;;8.46;83.17
85140;BME280;75501;52.586;13.284;2024-03-02T02:49:05;100090.78;;;8.37;83.04
85140;BME280;75501;52.586;13.284;2024-03-02T02:51:33;100092.88;;;8.27;83.63
85140;BME280;75501;52.586;13.284;2024-03-02T02:54:01;100090.38;;;8.44;82.73
85140;BME280;75501;52.586;13.284;2024-03-02T02:56:30;100089.38;;;8.40;82.90
85140;BME280;75501;52.586;13.284;2024-03-02T02:58:59;100093.00;;;8.35;83.58
85140;BME280;75501;52.586;13.284;2024-03-02T03:01:27;100094.78;;;8.40;83.24
85140;BME280;75501;52.586;13.284;2024-03-02T03:03:55;100089.19;;;8.50;83.27
85140;BME280;75501;52.586;13.284;2024-03-02T03:06:23;100090.91;;;8.46;83.44
85140;BME280;75501;52.586;13.284;2024-03-02T03:08:51;100096.00;;;8.47;83.54
85140;BME280;75501;52.586;13.284;2024-03-02T03:11:19;100092.00;;;8.45;83.43
85140;BME280;75501;52.586;13.284;2024-03-02T03:13:50;100093.00;;;8.49;83.57
85140;BME280;75501;52.586;13.284;2024-03-02T03:16:19;100095.91;;;8.53;83.17
85140;BME280;75501;52.586;13.284;2024-03-02T03:18:47;100093.75;;;8.77;82.98
85140;BME280;75501;52.586;13.284;2024-03-02T03:21:18;100086.75;;;8.62;83.56
85140;BME280;75501;52.586;13.284;2024-03-02T03:23:46;100089.44;;;8.76;83.28
85140;BME280;75501;52.586;13.284;2024-03-02T03:26:14;100089.53;;;8.84;83.00
85140;BME280;75501;52.586;13.284;2024-03-02T03:28:42;100090.16;;;8.81;83.10
85140;BME280;75501;52.586;13.284;2024-03-02T03:31:12;100089.41;;;8.89;82.87
85140;BME280;75501;52.586;13.284;2024-03-02T03:33:40;100104.28;;;8.92;82.74
85140;BME280;75501;52.586;13.284;2024-03-02T03:36:08;100089.69;;;9.02;82.57
85140;BME280;75501;52.586;13.284;2024-03-02T03:38:36;100093.81;;;8.99;82.26
85140;BME280;75501;52.586;13.284;2024-03-02T03:41:04;100099.91;;;8.69;83.66
85140;BME280;75501;52.586;13.284;2024-03-02T03:43:32;100095.59;;;9.04;83.21
85140;BME280;75501;52.586;13.284;2024-03-02T03:46:00;100096.91;;;9.06;82.75
85140;BME280;75501;52.586;13.284;2024-03-02T03:48:30;100091.22;;;8.94;83.19
85140;BME280;75501;52.586;13.284;2024-03-02T03:50:58;100087.88;;;8.97;83.60
85140;BME280;75501;52.586;13.284;2024-03-02T03:53:26;100091.50;;;9.06;83.47
85140;BME280;75501;52.586;13.284;2024-03-02T03:55:54;100092.38;;;9.37;82.63
85140;BME280;75501;52.586;13.284;2024-03-02T03:58:23;100086.50;;;9.22;82.96
85140;BME280;75501;52.586;13.284;2024-03-02T04:00:51;100084.91;;;9.21;82.62
85140;BME280;75501;52.586;13.284;2024-03-02T04:03:19;100086.56;;;9.30;82.83
85140;BME280;75501;52.586;13.284;2024-03-02T04:05:48;100091.50;;;9.50;82.05
85140;BME280;75501;52.586;13.284;2024-03-02T04:08:16;100096.69;;;9.38;82.51
85140;BME280;75501;52.586;13.284;2024-03-02T04:10:44;100093.91;;;9.30;83.09
85140;BME280;75501;52.586;13.284;2024-03-02T04:13:13;100091.25;;;9.16;83.61
85140;BME280;75501;52.586;13.284;2024-03-02T04:15:41;100098.16;;;9.22;83.95
85140;BME280;75501;52.586;13.284;2024-03-02T04:18:09;100096.88;;;9.20;83.79
85140;BME280;75501;52.586;13.284;2024-03-02T04:20:38;100102.78;;;9.22;84.20
85140;BME280;75501;52.586;13.284;2024-03-02T04:23:07;100111.63;;;9.27;84.18
85140;BME280;75501;52.586;13.284;2024-03-02T04:25:35;100112.72;;;9.26;84.33
85140;BME280;75501;52.586;13.284;2024-03-02T04:28:04;100106.75;;;9.38;83.99
85140;BME280;75501;52.586;13.284;2024-03-02T04:30:32;100109.94;;;9.40;84.22
85140;BME280;75501;52.586;13.284;2024-03-02T04:33:00;100112.00;;;9.34;83.73
85140;BME280;75501;52.586;13.284;2024-03-02T04:35:29;100110.66;;;9.45;84.01
85140;BME280;75501;52.586;13.284;2024-03-02T04:37:57;100118.97;;;9.49;84.11
85140;BME280;75501;52.586;13.284;2024-03-02T04:40:26;100116.44;;;9.53;84.00
85140;BME280;75501;52.586;13.284;2024-03-02T04:42:54;100115.44;;;9.48;84.44
85140;BME280;75501;52.586;13.284;2024-03-02T04:45:23;100115.09;;;9.41;84.98
85140;BME280;75501;52.586;13.284;2024-03-02T04:47:51;100117.09;;;9.36;84.73
85140;BME280;75501;52.586;13.284;2024-03-02T04:50:19;100114.09;;;9.37;84.49
85140;BME280;75501;52.586;13.284;2024-03-02T04:52:47;100113.94;;;9.42;84.85
85140;BME280;75501;52.586;13.284;2024-03-02T04:55:15;100122.34;;;9.32;85.18
85140;BME280;75501;52.586;13.284;2024-03-02T04:58:18;100118.94;;;9.27;85.36
85140;BME280;75501;52.586;13.284;2024-03-02T05:00:46;100126.78;;;9.28;85.53
85140;BME280;75501;52.586;13.284;2024-03-02T05:03:15;100123.53;;;9.40;84.91
85140;BME280;75501;52.586;13.284;2024-03-02T05:05:43;100127.78;;;9.32;85.27
85140;BME280;75501;52.586;13.284;2024-03-02T05:08:12;100132.59;;;9.35;85.11
85140;BME280;75501;52.586;13.284;2024-03-02T05:10:40;100131.63;;;9.31;85.21
85140;BME280;75501;52.586;13.284;2024-03-02T05:13:08;100136.47;;;9.21;86.07
85140;BME280;75501;52.586;13.284;2024-03-02T05:15:38;100137.97;;;9.27;85.73
85140;BME280;75501;52.586;13.284;2024-03-02T05:18:07;100145.06;;;9.36;85.84
85140;BME280;75501;52.586;13.284;2024-03-02T05:20:35;100140.25;;;9.33;85.55
85140;BME280;75501;52.586;13.284;2024-03-02T05:23:03;100151.00;;;9.38;85.65
85140;BME280;75501;52.586;13.284;2024-03-02T05:25:31;100146.16;;;9.35;85.58
85140;BME280;75501;52.586;13.284;2024-03-02T05:28:01;100153.34;;;9.31;85.83
85140;BME280;75501;52.586;13.284;2024-03-02T05:30:30;100154.69;;;9.42;85.21
85140;BME280;75501;52.586;13.284;2024-03-02T05:33:00;100153.91;;;9.42;85.41
85140;BME280;75501;52.586;13.284;2024-03-02T05:35:28;100164.19;;;9.31;85.48
85140;BME280;75501;52.586;13.284;2024-03-02T05:37:56;100162.56;;;9.30;85.78
85140;BME280;75501;52.586;13.284;2024-03-02T05:40:25;100160.84;;;9.57;84.81
85140;BME280;75501;52.586;13.284;2024-03-02T05:42:53;100161.66;;;9.35;85.08
85140;BME280;75501;52.586;13.284;2024-03-02T05:45:21;100169.09;;;9.29;85.81
85140;BME280;75501;52.586;13.284;2024-03-02T05:47:50;100169.38;;;9.41;84.74
85140;BME280;75501;52.586;13.284;2024-03-02T05:50:19;100176.25;;;9.25;85.39
85140;BME280;75501;52.586;13.284;2024-03-02T05:52:47;100172.66;;;9.16;85.86
85140;BME280;75501;52.586;13.284;2024-03-02T05:55:15;100177.56;;;9.14;85.85
85140;BME280;75501;52.586;13.284;2024-03-02T05:57:43;100184.13;;;9.13;85.69
85140;BME280;75501;52.586;13.284;2024-03-02T06:00:25;100187.53;;;9.19;85.60
85140;BME280;75501;52.586;13.284;2024-03-02T06:02:53;100192.16;;;9.18;85.29
85140;BME280;75501;52.586;13.284;2024-03-02T06:05:24;100198.91;;;9.07;85.94
85140;BME280;75501;52.586;13.284;2024-03-02T06:07:52;100199.03;;;9.02;85.99
85140;BME280;75501;52.586;13.284;2024-03-02T06:10:20;100203.22;;;9.08;85.59
85140;BME280;75501;52.586;13.284;2024-03-02T06:12:48;100210.50;;;8.99;85.88
85140;BME280;75501;52.586;13.284;2024-03-02T06:15:17;100200.53;;;8.94;86.04
85140;BME280;75501;52.586;13.284;2024-03-02T06:17:45;100199.44;;;8.95;86.21
85140;BME280;75501;52.586;13.284;2024-03-02T06:20:13;100202.34;;;8.99;85.84
85140;BME280;75501;52.586;13.284;2024-03-02T06:22:43;100196.91;;;8.99;85.93
85140;BME280;75501;52.586;13.284;2024-03-02T06:25:11;100203.84;;;9.05;85.70
85140;BME280;75501;52.586;13.284;2024-03-02T06:27:39;100199.50;;;9.04;85.66
85140;BME280;75501;52.586;13.284;2024-03-02T06:30:08;100187.25;;;9.07;85.59
85140;BME280;75501;52.586;13.284;2024-03-02T06:32:37;100182.13;;;9.05;85.18
85140;BME280;75501;52.586;13.284;2024-03-02T06:35:06;100190.38;;;9.00;85.48
85140;BME280;75501;52.586;13.284;2024-03-02T06:37:36;100200.25;;;8.96;85.46
85140;BME280;75501;52.586;13.284;2024-03-02T06:40:08;100191.34;;;9.18;84.63
85140;BME280;75501;52.586;13.284;2024-03-02T06:42:37;100195.72;;;9.41;84.40
85140;BME280;75501;52.586;13.284;2024-03-02T06:45:06;100188.41;;;9.64;84.17
85140;BME280;75501;52.586;13.284;2024-03-02T06:47:34;100188.25;;;9.46;83.57
85140;BME280;75501;52.586;13.284;2024-03-02T06:50:02;100188.09;;;9.29;84.04
85140;BME280;75501;52.586;13.284;2024-03-02T06:52:31;100186.91;;;9.22;84.32
85140;BME280;75501;52.586;13.284;2024-03-02T06:54:59;100190.56;;;9.17;84.33
85140;BME280;75501;52.586;13.284;2024-03-02T06:57:29;100192.75;;;9.15;84.15
85140;BME280;75501;52.586;13.284;2024-03-02T07:00:00;100201.19;;;9.27;83.25
85140;BME280;75501;52.586;13.284;2024-03-02T07:02:32;100203.53;;;9.20;83.54
85140;BME280;75501;52.586;13.284;2024-03-02T07:06:32;100199.84;;;9.03;83.96
85140;BME280;75501;52.586;13.284;2024-03-02T07:20:57;100222.50;;;9.34;83.54
85140;BME280;75501;52.586;13.284;2024-03-02T07:23:36;100216.91;;;9.53;83.31
85140;BME280;75501;52.586;13.284;2024-03-02T07:26:05;100222.34;;;9.75;82.75
85140;BME280;75501;52.586;13.284;2024-03-02T07:28:38;100217.94;;;10.01;81.54
85140;BME280;75501;52.586;13.284;2024-03-02T07:56:41;100263.53;;;10.26;79.24
85140;BME280;75501;52.586;13.284;2024-03-02T07:59:39;100265.56;;;10.21;79.55
85140;BME280;75501;52.586;13.284;2024-03-02T08:02:07;100282.69;;;10.43;78.58
85140;BME280;75501;52.586;13.284;2024-03-02T08:04:37;100279.22;;;10.52;78.37
85140;BME280;75501;52.586;13.284;2024-03-02T08:07:09;100271.72;;;10.57;78.42
85140;BME280;75501;52.586;13.284;2024-03-02T08:09:37;100272.59;;;10.66;78.29
85140;BME280;75501;52.586;13.284;2024-03-02T08:12:08;100272.44;;;10.71;77.36
85140;BME280;75501;52.586;13.284;2024-03-02T08:14:36;100279.63;;;10.67;77.97
85140;BME280;75501;52.586;13.284;2024-03-02T08:17:05;100283.84;;;10.82;77.35
85140;BME280;75501;52.586;13.284;2024-03-02T08:19:36;100284.25;;;10.97;76.42
85140;BME280;75501;52.586;13.284;2024-03-02T08:22:06;100281.00;;;10.87;77.09
85140;BME280;75501;52.586;13.284;2024-03-02T08:24:35;100288.47;;;10.81;77.35
85140;BME280;75501;52.586;13.284;2024-03-02T08:27:04;100287.97;;;11.02;76.70
85140;BME280;75501;52.586;13.284;2024-03-02T08:29:34;100292.88;;;10.91;76.87
85140;BME280;75501;52.586;13.284;2024-03-02T08:32:03;100288.13;;;11.05;76.08
85140;BME280;75501;52.586;13.284;2024-03-02T08:34:33;100292.06;;;10.90;76.07
85140;BME280;75501;52.586;13.284;2024-03-02T08:37:02;100294.28;;;10.88;77.03
85140;BME280;75501;52.586;13.284;2024-03-02T08:39:31;100294.63;;;10.87;76.23
85140;BME280;75501;52.586;13.284;2024-03-02T08:42:00;100301.50;;;10.93;76.19
85140;BME280;75501;52.586;13.284;2024-03-02T08:44:29;100303.97;;;11.03;75.35
85140;BME280;75501;52.586;13.284;2024-03-02T08:47:12;100308.59;;;11.03;75.33
85140;BME280;75501;52.586;13.284;2024-03-02T08:49:48;100304.47;;;11.05;74.96
85140;BME280;75501;52.586;13.284;2024-03-02T08:52:34;100303.53;;;11.18;74.74
85140;BME280;75501;52.586;13.284;2024-03-02T08:55:13;100311.38;;;11.11;74.86
85140;BME280;75501;52.586;13.284;2024-03-02T08:57:59;100312.19;;;11.20;74.72
85140;BME280;75501;52.586;13.284;2024-03-02T09:00:39;100313.91;;;11.08;74.48
85140;BME280;75501;52.586;13.284;2024-03-02T09:03:21;100313.69;;;10.95;75.16
85140;BME280;75501;52.586;13.284;2024-03-02T09:06:07;100317.22;;;10.96;75.38
85140;BME280;75501;52.586;13.284;2024-03-02T09:09:06;100326.13;;;10.88;75.40
85140;BME280;75501;52.586;13.284;2024-03-02T09:11:47;100320.97;;;11.09;75.10
85140;BME280;75501;52.586;13.284;2024-03-02T09:14:35;100322.56;;;11.10;74.92
85140;BME280;75501;52.586;13.284;2024-03-02T09:17:31;100329.91;;;11.01;74.75
85140;BME280;75501;52.586;13.284;2024-03-02T09:20:33;100331.81;;;11.00;74.89
85140;BME280;75501;52.586;13.284;2024-03-02T09:23:27;100334.75;;;11.12;74.30
85140;BME280;75501;52.586;13.284;2024-03-02T09:26:14;100336.69;;;11.12;75.00
85140;BME280;75501;52.586;13.284;2024-03-02T09:29:20;100333.94;;;11.12;74.27
85140;BME280;75501;52.586;13.284;2024-03-02T09:32:06;100343.28;;;11.19;73.98
85140;BME280;75501;52.586;13.284;2024-03-02T09:34:42;100346.94;;;11.15;73.95
85140;BME280;75501;52.586;13.284;2024-03-02T09:37:12;100345.31;;;11.14;74.16
85140;BME280;75501;52.586;13.284;2024-03-02T09:39:43;100344.50;;;11.05;74.18
85140;BME280;75501;52.586;13.284;2024-03-02T09:42:12;100343.53;;;11.09;73.75
85140;BME280;75501;52.586;13.284;2024-03-02T09:44:42;100341.34;;;11.20;74.03
85140;BME280;75501;52.586;13.284;2024-03-02T09:47:11;100341.44;;;11.45;73.10
85140;BME280;75501;52.586;13.284;2024-03-02T09:49:40;100340.16;;;11.52;72.69
85140;BME280;75501;52.586;13.284;2024-03-02T09:52:08;100337.63;;;11.64;72.28
85140;BME280;75501;52.586;13.284;2024-03-02T09:54:39;100331.94;;;11.91;71.44
85140;BME280;75501;52.586;13.284;2024-03-02T09:57:08;100338.03;;;12.22;70.51
85140;BME280;75501;52.586;13.284;2024-03-02T09:59:37;100333.72;;;12.30;69.73
85140;BME280;75501;52.586;13.284;2024-03-02T10:02:05;100326.50;;;12.42;69.56
85140;BME280;75501;52.586;13.284;2024-03-02T10:04:34;100339.09;;;12.73;69.20
85140;BME280;75501;52.586;13.284;2024-03-02T10:07:10;100336.81;;;12.92;68.20
85140;BME280;75501;52.586;13.284;2024-03-02T10:09:42;100332.78;;;12.98;67.65
85140;BME280;75501;52.586;13.284;2024-03-02T10:12:12;100326.47;;;13.53;66.42
85140;BME280;75501;52.586;13.284;2024-03-02T10:14:42;100333.53;;;13.54;65.10
85140;BME280;75501;52.586;13.284;2024-03-02T10:17:13;100335.41;;;13.62;64.74
85140;BME280;75501;52.586;13.284;2024-03-02T10:19:42;100335.94;;;13.55;64.40
85140;BME280;75501;52.586;13.284;2024-03-02T10:22:10;100338.34;;;13.57;64.01
85140;BME280;75501;52.586;13.284;2024-03-02T10:24:41;100332.91;;;13.48;65.18
85140;BME280;75501;52.586;13.284;2024-03-02T10:27:16;100339.13;;;13.57;64.15
85140;BME280;75501;52.586;13.284;2024-03-02T10:29:46;100341.53;;;13.59;63.71
85140;BME280;75501;52.586;13.284;2024-03-02T10:32:15;100330.50;;;13.76;63.24
85140;BME280;75501;52.586;13.284;2024-03-02T10:34:45;100334.63;;;13.82;63.56
85140;BME280;75501;52.586;13.284;2024-03-02T10:37:14;100332.53;;;13.58;63.10
85140;BME280;75501;52.586;13.284;2024-03-02T10:39:46;100336.19;;;13.41;64.67
85140;BME280;75501;52.586;13.284;2024-03-02T10:42:15;100331.66;;;13.45;63.82
85140;BME280;75501;52.586;13.284;2024-03-02T10:44:48;100332.78;;;13.94;62.41
85140;BME280;75501;52.586;13.284;2024-03-02T10:47:19;100340.25;;;13.85;62.64
85140;BME280;75501;52.586;13.284;2024-03-02T10:49:51;100334.44;;;14.28;61.41
85140;BME280;75501;52.586;13.284;2024-03-02T10:52:21;100336.50;;;14.31;61.21
85140;BME280;75501;52.586;13.284;2024-03-02T10:54:52;100340.78;;;14.62;59.98
85140;BME280;75501;52.586;13.284;2024-03-02T10:57:20;100333.19;;;14.47;60.22
85140;BME280;75501;52.586;13.284;2024-03-02T10:59:52;100330.03;;;15.02;59.12
85140;BME280;75501;52.586;13.284;2024-03-02T11:02:25;100331.56;;;14.66;58.52
85140;BME280;75501;52.586;13.284;2024-03-02T11:04:59;100345.16;;;13.71;61.71
85140;BME280;75501;52.586;13.284;2024-03-02T11:07:35;100339.19;;;13.78;61.44
85140;BME280;75501;52.586;13.284;2024-03-02T11:10:08;100349.28;;;13.57;62.44
85140;BME280;75501;52.586;13.284;2024-03-02T11:12:39;100330.66;;;14.00;60.85
85140;BME280;75501;52.586;13.284;2024-03-02T11:15:18;100338.31;;;13.86;61.05
85140;BME280;75501;52.586;13.284;2024-03-02T11:17:47;100333.06;;;13.81;59.92
85140;BME280;75501;52.586;13.284;2024-03-02T11:20:16;100342.69;;;13.78;59.56
85140;BME280;75501;52.586;13.284;2024-03-02T11:22:45;100334.84;;;13.77;59.42
85140;BME280;75501;52.586;13.284;2024-03-02T11:25:25;100328.94;;;13.37;61.37
85140;BME280;75501;52.586;13.284;2024-03-02T11:28:05;100329.25;;;13.44;61.35
85140;BME280;75501;52.586;13.284;2024-03-02T11:30:49;100333.31;;;13.38;60.75
85140;BME280;75501;52.586;13.284;2024-03-02T11:33:25;100331.84;;;13.40;60.68
85140;BME280;75501;52.586;13.284;2024-03-02T11:35:57;100328.34;;;13.31;60.37
85140;BME280;75501;52.586;13.284;2024-03-02T11:38:33;100337.25;;;13.49;60.41
85140;BME280;75501;52.586;13.284;2024-03-02T11:41:06;100332.44;;;13.75;59.55
85140;BME280;75501;52.586;13.284;2024-03-02T11:43:37;100329.56;;;13.92;58.89
85140;BME280;75501;52.586;13.284;2024-03-02T11:46:07;100328.03;;;14.04;58.26
85140;BME280;75501;52.586;13.284;2024-03-02T11:48:37;100327.84;;;14.50;56.21
85140;BME280;75501;52.586;13.284;2024-03-02T11:51:07;100322.88;;;14.64;56.34
85140;BME280;75501;52.586;13.284;2024-03-02T11:53:35;100330.88;;;14.69;55.89
85140;BME280;75501;52.586;13.284;2024-03-02T11:56:09;100328.31;;;15.09;55.31
85140;BME280;75501;52.586;13.284;2024-03-02T11:58:40;100333.63;;;15.26;54.60
85140;BME280;75501;52.586;13.284;2024-03-02T12:01:10;100326.38;;;14.98;54.94
85140;BME280;75501;52.586;13.284;2024-03-02T12:03:40;100328.78;;;15.11;54.34
85140;BME280;75501;52.586;13.284;2024-03-02T12:06:08;100332.44;;;15.27;54.33
85140;BME280;75501;52.586;13.284;2024-03-02T12:08:37;100335.63;;;14.93;54.59
85140;BME280;75501;52.586;13.284;2024-03-02T12:11:13;100333.91;;;15.13;54.66
85140;BME280;75501;52.586;13.284;2024-03-02T12:13:51;100331.34;;;15.40;53.87
85140;BME280;75501;52.586;13.284;2024-03-02T12:16:23;100334.16;;;15.20;54.13
85140;BME280;75501;52.586;13.284;2024-03-02T12:18:52;100332.50;;;15.64;53.22
85140;BME280;75501;52.586;13.284;2024-03-02T12:21:20;100333.34;;;16.04;52.34
85140;BME280;75501;52.586;13.284;2024-03-02T12:23:48;100329.38;;;15.89;52.40
85140;BME280;75501;52.586;13.284;2024-03-02T12:26:19;100326.94;;;16.00;51.74
85140;BME280;75501;52.586;13.284;2024-03-02T12:28:47;100330.59;;;16.04;51.79
85140;BME280;75501;52.586;13.284;2024-03-02T12:31:16;100313.53;;;15.59;52.88
85140;BME280;75501;52.586;13.284;2024-03-02T12:33:44;100316.34;;;15.38;53.41
85140;BME280;75501;52.586;13.284;2024-03-02T12:36:14;100305.63;;;15.33;53.56
85140;BME280;75501;52.586;13.284;2024-03-02T12:38:43;100310.66;;;15.43;52.97
85140;BME280;75501;52.586;13.284;2024-03-02T12:41:14;100315.25;;;15.51;53.12
85140;BME280;75501;52.586;13.284;2024-03-02T12:43:44;100316.38;;;15.50;52.55
85140;BME280;75501;52.586;13.284;2024-03-02T12:46:13;100323.13;;;15.65;52.09
85140;BME280;75501;52.586;13.284;2024-03-02T12:48:42;100315.34;;;15.67;52.42
85140;BME280;75501;52.586;13.284;2024-03-02T12:51:11;100319.69;;;15.68;52.32
85140;BME280;75501;52.586;13.284;2024-03-02T12:53:41;100307.06;;;15.91;52.18
85140;BME280;75501;52.586;13.284;2024-03-02T12:56:10;100320.81;;;15.67;52.82
85140;BME280;75501;52.586;13.284;2024-03-02T12:58:39;100313.28;;;15.39;53.08
85140;BME280;75501;52.586;13.284;2024-03-02T13:01:10;100313.28;;;15.15;54.10
85140;BME280;75501;52.586;13.284;2024-03-02T13:03:41;100311.59;;;14.78;55.20
85140;BME280;75501;52.586;13.284;2024-03-02T13:06:11;100298.25;;;14.76;55.19
85140;BME280;75501;52.586;13.284;2024-03-02T13:08:39;100305.59;;;14.97;54.74
85140;BME280;75501;52.586;13.284;2024-03-02T13:11:08;100305.25;;;15.10;54.46
85140;BME280;75501;52.586;13.284;2024-03-02T13:13:44;100309.84;;;15.42;53.78
85140;BME280;75501;52.586;13.284;2024-03-02T13:18:52;100301.53;;;15.51;53.27
85140;BME280;75501;52.586;13.284;2024-03-02T13:21:57;100303.13;;;15.52;53.07
85140;BME280;75501;52.586;13.284;2024-03-02T13:25:19;100299.25;;;15.53;53.26
85140;BME280;75501;52.586;13.284;2024-03-02T13:28:18;100293.41;;;15.42;53.08
85140;BME280;75501;52.586;13.284;2024-03-02T13:30:50;100305.50;;;15.05;53.98
85140;BME280;75501;52.586;13.284;2024-03-02T13:33:25;100295.91;;;15.35;53.33
85140;BME280;75501;52.586;13.284;2024-03-02T13:36:02;100298.75;;;15.27;53.96
85140;BME280;75501;52.586;13.284;2024-03-02T13:38:37;100294.44;;;15.26;54.30
85140;BME280;75501;52.586;13.284;2024-03-02T13:41:10;100292.72;;;15.21;54.28
85140;BME280;75501;52.586;13.284;2024-03-02T13:43:38;100302.06;;;15.20;54.55
85140;BME280;75501;52.586;13.284;2024-03-02T13:46:21;100295.84;;;15.96;52.47
85140;BME280;75501;52.586;13.284;2024-03-02T13:48:53;100292.47;;;16.42;51.18
85140;BME280;75501;52.586;13.284;2024-03-02T13:51:30;100294.06;;;16.87;49.59
85140;BME280;75501;52.586;13.284;2024-03-02T13:54:06;100290.38;;;17.11;48.18
85140;BME280;75501;52.586;13.284;2024-03-02T13:56:36;100292.41;;;16.98;47.70
85140;BME280;75501;52.586;13.284;2024-03-02T13:59:11;100290.09;;;16.84;48.06
85140;BME280;75501;52.586;13.284;2024-03-02T14:01:49;100289.94;;;16.93;47.06
85140;BME280;75501;52.586;13.284;2024-03-02T14:04:18;100291.06;;;16.76;47.17
85140;BME280;75501;52.586;13.284;2024-03-02T14:06:49;100291.06;;;16.76;47.00
85140;BME280;75501;52.586;13.284;2024-03-02T14:09:28;100284.84;;;16.79;46.27
85140;BME280;75501;52.586;13.284;2024-03-02T14:12:02;100289.88;;;16.62;47.67
85140;BME280;75501;52.586;13.284;2024-03-02T14:14:41;100289.28;;;16.84;47.46
85140;BME280;75501;52.586;13.284;2024-03-02T14:17:13;100289.63;;;16.67;46.59
85140;BME280;75501;52.586;13.284;2024-03-02T14:19:42;100279.88;;;16.41;47.26
85140;BME280;75501;52.586;13.284;2024-03-02T14:22:35;100292.63;;;16.34;48.16